Saint Edward, Nebraska
Current Conditions -  °F | °C
As of 2:35 AM on Saturday 29 Nov 2014 (Local Time) from KBVN Reporting Station
Clear Clear  
Wind Chill: 45°   Ceiling: Unl
Heat Index: 45°   Visibility: 10mi
Dew Point: 21°   Wind: 3mph
Humidity: 39%   Direction: 280°W
Pressure: 29.55"   Gusts: NA
Location:  41.57°N, 97.87°W
Report Text: KBVN 290835Z AUTO 28003KT 10SM CLR 07/M06 A2955 RMK AO2 T00701063
Loading
Personal Weather Stations






























Interactive Weather Map New forecast layout! Learn more

10-Day Weather Forecast

Advertisements
Track Severe Weather on mobile